Terminal Aerodrome Forecast
Issued by NWS Cleveland, OH

Home | Current Version | Previous Version | Text Only | Print | Product List | Glossary Off
Versions: 1 2 3 4 5 6 7 8 9 10 11 12

381
FTUS41 KCLE 220521
TAFTOL
TAF
KTOL 220521Z 2206/2306 VRB04KT P6SM SKC
     FM221100 32008KT P6SM BKN100
     FM221600 01012G20KT P6SM BKN100
     FM222200 01005KT P6SM SKC=

USA.gov is the U.S. government's official web portal to all federal, state and local government web resources and services.